South Woodstock, VT (05071)

12:00 PM EDT on August 31, 2015 (GMT -0400)
Reading, Vermont | | Change Station
CLOSE
Current Station
Personal Weather Station
Location: Reading, VT
Elevation: 1755 ft
Nearby Weather Stations

Elev 1755 ft 43.52 °N, 72.54 °W | Updated 1 second ago

Partly Cloudy
Partly Cloudy
73.2 °F
Feels Like 74 °F
N
10.3
Wind Variable Wind from SW
Gusts 12.3 mph

Today
High -- | Low -- °F
--% Chance of Precip.
Yesterday
High -- | Low -- °F
Precip. -- in
6:12 AM 7:27 PM
Waning Gibbous, 95% visible
Pressure 29.93 in
Visibility 9.0 miles
Clouds Few 3400 ft
Heat Index 74 °F
Dew Point 65 °F
Humidity 76%
Rainfall in
Snow Depth Not available.
UV 6.0 out of 12
Pollen 8.80 out of 12
Air Quality Not available.
Flu Activity Not available.
METAR KLEB 311453Z 19011KT 9SM FEW034 26/18 A2995 RMK AO2 SLP133 T02610178 58009
Pressure 29.93 in
Visibility 9.0 miles
Clouds Few 3400 ft
Heat Index 74 °F
Dew Point 65 °F
Humidity 76%
Rainfall in
Snow Depth Not available.
UV 6.0 out of 12
Pollen 8.80 out of 12
Air Quality Not available.
Flu Activity Not available.
METAR KLEB 311453Z 19011KT 9SM FEW034 26/18 A2995 RMK AO2 SLP133 T02610178 58009

10-Day Weather Forecast

×

Almanac

Astronomy

Aug. 31, 2015 Rise Set
Actual Time
Civil Twilight
Nautical Twilight
Astronomical Twilight
Moon
Length of Visible Light
Length of Day
Tomorrow will be .
, % of the Moon is Illuminated

Today's Extremes

State Highs State Lows

Community

WunderPhotos

Upload Photos

1,851,298 photos uploaded!

WunderBlogs® & News

Nearby

Air Quality

  Air Quality AQ Index Pollutant
Not available.

Snow Depth

Station Depth Elevation

Earthquake Activity

City Distance Mag. Time & Date
Minimum magnitude displayed is 2.5.

Coastal Water Temperatures

Place Temperature

Stations

Nearby Weather Stations

Station Location Temp. Windchill Dew Point Humidity Wind Precip. Elev Updated Type